Time;durP1;ratioP1;P1;durP2;ratioP2;P2;SDS_P1;SDS_P2;PMS_P1;PMS_P2;Temp;Humidity;BMP_temperature;BMP_pressure;BME280_temperature;BME280_humidity;BME280_pressure;Samples;Min_cycle;Max_cycle;Signal;HPM_P1;HPM_P2
2022/06/19 00:02:22;;;;;;;4.08;3.72;;;;;;;19.22;53.94;99962.64;1696350;83;21514;-75
2022/06/19 00:04:50;;;;;;;5.62;4.28;;;;;;;19.27;53.55;99969.92;1694107;84;21029;-74
2022/06/19 00:07:17;;;;;;;4.55;4.15;;;;;;;19.30;53.48;99971.49;1693996;84;21262;-75
2022/06/19 00:09:43;;;;;;;9.18;4.60;;;;;;;19.33;54.44;99972.24;1703250;83;21064;-73
2022/06/19 00:12:10;;;;;;;5.33;4.87;;;;;;;19.31;53.21;99969.02;1717945;83;21070;-75
2022/06/19 00:14:37;;;;;;;4.85;4.25;;;;;;;19.32;52.54;99968.47;1730570;82;21043;-79
2022/06/19 00:17:06;;;;;;;5.40;4.53;;;;;;;19.35;52.09;99965.95;1716156;81;20997;-73
2022/06/19 00:19:33;;;;;;;5.47;4.33;;;;;;;19.38;51.73;99968.61;1668512;84;21642;-85
2022/06/19 00:21:59;;;;;;;5.90;4.65;;;;;;;19.39;52.22;99969.68;1682037;85;20965;-70
2022/06/19 00:24:26;;;;;;;4.45;4.05;;;;;;;19.37;51.94;99962.37;1681959;85;20993;-76
2022/06/19 00:26:53;;;;;;;6.35;3.70;;;;;;;19.38;51.55;99962.60;1682597;84;21069;-73
2022/06/19 00:29:19;;;;;;;6.08;3.87;;;;;;;19.40;50.43;99967.22;1690289;82;21062;-75
2022/06/19 00:31:46;;;;;;;4.65;3.65;;;;;;;19.44;50.90;99972.91;1686269;83;21085;-74
2022/06/19 00:34:13;;;;;;;4.10;3.42;;;;;;;19.44;49.97;99960.63;1695353;84;21083;-76
2022/06/19 00:36:40;;;;;;;5.65;3.75;;;;;;;19.46;49.17;99957.86;1689970;84;20997;-73
2022/06/19 00:39:07;;;;;;;3.77;3.12;;;;;;;19.49;49.39;99953.70;1689148;84;21097;-77
2022/06/19 00:41:39;;;;;;;4.22;3.83;;;;;;;19.50;49.28;99958.06;1691528;84;21521;-76
2022/06/19 00:44:09;;;;;;;5.80;4.03;;;;;;;19.51;49.54;99956.41;1703490;84;21217;-74
2022/06/19 00:46:47;;;;;;;4.12;3.65;;;;;;;19.51;48.58;99960.50;1685649;84;21144;-77
2022/06/19 00:49:28;;;;;;;6.35;4.42;;;;;;;19.54;48.04;99958.52;1691266;84;21094;-74
2022/06/19 00:52:19;;;;;;;3.52;3.22;;;;;;;19.58;47.84;99954.06;1692565;83;21017;-79
2022/06/19 00:55:00;;;;;;;4.20;3.62;;;;;;;19.62;48.28;99952.90;1690316;84;21017;-81
2022/06/19 00:57:28;;;;;;;5.75;4.28;;;;;;;19.62;47.68;99954.27;1671593;84;22129;-79
2022/06/19 01:00:03;;;;;;;4.05;3.65;;;;;;;19.64;47.52;99952.05;1689411;84;20996;-78
2022/06/19 01:02:31;;;;;;;7.80;4.60;;;;;;;19.66;47.24;99958.58;1694510;83;21060;-73
2022/06/19 01:04:57;;;;;;;9.35;4.22;;;;;;;19.68;47.30;99965.34;1685093;83;21616;-74
2022/06/19 01:10:15;;;;;;;4.00;3.70;;;;;;;19.71;47.49;99960.63;1760500;81;21404;-76
2022/06/19 01:12:45;;;;;;;5.72;3.90;;;;;;;19.74;47.50;99957.86;1730420;82;20986;-74
2022/06/19 01:15:14;;;;;;;4.87;4.17;;;;;;;19.73;47.65;99953.52;1746122;81;21525;-76
2022/06/19 01:17:40;;;;;;;5.08;4.55;;;;;;;19.70;47.93;99956.30;1754279;81;21518;-82
2022/06/19 01:20:10;;;;;;;4.35;3.62;;;;;;;19.67;48.03;99954.16;1715003;83;21809;-90
2022/06/19 01:23:07;;;;;;;5.17;4.35;;;;;;;19.66;47.81;99958.58;1695147;82;21222;-89
2022/06/19 01:25:36;;;;;;;4.87;4.10;;;;;;;19.63;47.91;99957.80;1732296;81;21056;-84
2022/06/19 01:30:56;;;;;;;4.95;4.30;;;;;;;19.54;48.52;99967.25;1704432;84;21131;-92
2022/06/19 01:33:46;;;;;;;5.15;4.12;;;;;;;19.50;48.80;99962.16;1729276;83;21047;-84
2022/06/19 01:36:16;;;;;;;5.72;5.15;;;;;;;19.47;48.99;99960.05;1647268;86;22108;-85
2022/06/19 01:38:46;;;;;;;9.20;4.65;;;;;;;19.43;49.12;99960.33;1712179;83;21046;-89
2022/06/19 01:41:14;;;;;;;4.05;3.75;;;;;;;19.39;49.68;99956.05;1726491;83;21127;-90
2022/06/19 01:43:46;;;;;;;7.33;4.20;;;;;;;19.35;50.07;99956.95;1733556;82;21019;-85
2022/06/19 01:46:16;;;;;;;4.92;3.65;;;;;;;19.33;50.29;99960.55;1738979;82;21135;-88
2022/06/19 01:48:43;;;;;;;5.20;3.87;;;;;;;19.30;50.64;99965.22;1750879;81;21385;-81
2022/06/19 01:51:09;;;;;;;6.83;4.47;;;;;;;19.27;50.88;99966.64;1730166;81;20959;-92
2022/06/19 01:53:47;;;;;;;3.40;3.05;;;;;;;19.25;51.24;99967.48;1701733;82;21072;-85
2022/06/19 01:56:14;;;;;;;4.22;3.83;;;;;;;19.22;51.52;99965.92;1730701;82;21054;-87
2022/06/19 01:58:45;;;;;;;3.58;3.27;;;;;;;19.20;51.68;99964.03;1703360;84;21044;-84
2022/06/19 02:01:12;;;;;;;5.70;3.85;;;;;;;19.20;51.45;99966.22;1706133;82;21364;-85
2022/06/19 02:03:54;;;;;;;4.12;3.45;;;;;;;19.23;51.53;99958.00;1703746;84;21001;-86
2022/06/19 02:06:25;;;;;;;5.60;3.92;;;;;;;19.23;51.50;99961.55;1728816;83;21019;-80
2022/06/19 02:08:51;;;;;;;3.58;2.40;;;;;;;19.24;51.59;99961.77;1703678;83;21056;-81
2022/06/19 02:11:19;;;;;;;8.50;4.15;;;;;;;19.25;51.60;99969.41;1674009;85;21036;-80
2022/06/19 02:13:48;;;;;;;6.45;3.75;;;;;;;19.25;51.84;99964.77;1674952;85;21124;-79
2022/06/19 02:16:18;;;;;;;4.70;4.20;;;;;;;19.24;51.92;99965.05;1723974;82;21009;-80
2022/06/19 02:18:48;;;;;;;4.10;3.65;;;;;;;19.22;51.96;99970.83;1703659;84;21001;-81
2022/06/19 02:21:20;;;;;;;4.47;3.40;;;;;;;19.21;52.13;99970.56;1681331;84;21520;-79
2022/06/19 02:23:47;;;;;;;6.33;3.60;;;;;;;19.19;52.27;99972.77;1672844;85;21043;-80
2022/06/19 02:26:15;;;;;;;3.08;2.83;;;;;;;19.18;52.29;99972.54;1677435;84;21179;-80
2022/06/19 02:28:45;;;;;;;7.50;3.92;;;;;;;19.18;52.39;99973.32;1704964;84;21333;-80
2022/06/19 02:31:12;;;;;;;5.25;3.90;;;;;;;19.17;52.58;99980.46;1701998;83;21075;-82
2022/06/19 02:33:45;;;;;;;4.72;3.67;;;;;;;19.14;52.69;99990.03;1675699;85;21326;-81
2022/06/19 02:36:42;;;;;;;4.00;3.60;;;;;;;19.10;52.89;99984.92;1712458;83;21059;-77
2022/06/19 02:39:34;;;;;;;3.98;3.12;;;;;;;19.07;52.97;99982.81;1705438;84;21157;-79
2022/06/19 02:42:36;;;;;;;7.12;4.30;;;;;;;19.03;53.09;99982.34;1710233;82;21041;-79
2022/06/19 02:45:13;;;;;;;4.25;3.75;;;;;;;19.00;53.29;99985.64;1714183;82;20916;-86
2022/06/19 02:47:41;;;;;;;5.58;3.50;;;;;;;18.95;53.48;99976.19;1708851;82;20905;-87
2022/06/19 02:50:11;;;;;;;4.30;3.90;;;;;;;18.92;53.69;99982.24;1707741;84;21032;-87
2022/06/19 02:52:39;;;;;;;4.40;4.00;;;;;;;18.89;53.79;99982.30;1678258;84;21557;-85
2022/06/19 02:55:07;;;;;;;5.05;3.67;;;;;;;18.87;54.01;99976.88;1734710;82;20933;-86
2022/06/19 02:57:34;;;;;;;3.92;3.60;;;;;;;18.85;54.09;99971.70;1705400;84;21554;-86
2022/06/19 03:00:05;;;;;;;8.60;3.62;;;;;;;18.84;54.20;99972.03;1722250;82;21027;-85
2022/06/19 03:02:34;;;;;;;3.42;3.12;;;;;;;18.83;54.25;99971.77;1628262;85;21147;-84
2022/06/19 03:05:03;;;;;;;5.03;3.30;;;;;;;18.82;54.21;99967.41;1689958;84;21764;-84
2022/06/19 03:07:30;;;;;;;5.22;3.65;;;;;;;18.81;54.11;99965.79;1704554;84;21009;-85
2022/06/19 03:09:56;;;;;;;3.20;2.85;;;;;;;18.83;53.92;99967.67;1681191;84;21055;-84
2022/06/19 03:12:23;;;;;;;5.78;3.27;;;;;;;18.85;53.69;99972.29;1675631;85;21019;-85
2022/06/19 03:14:51;;;;;;;3.05;2.77;;;;;;;18.88;53.56;99967.59;1724419;82;21460;-84
2022/06/19 03:17:20;;;;;;;3.67;3.12;;;;;;;18.92;53.38;99964.52;1693844;84;21500;-85
2022/06/19 03:19:48;;;;;;;3.80;3.50;;;;;;;18.95;53.35;99955.73;1703688;84;21039;-85
2022/06/19 03:22:14;;;;;;;2.85;2.55;;;;;;;18.98;53.07;99960.61;1648784;85;21023;-84
2022/06/19 03:24:41;;;;;;;5.87;2.90;;;;;;;19.01;53.00;99958.09;1703773;83;21090;-85
2022/06/19 03:27:09;;;;;;;5.78;2.95;;;;;;;19.04;52.86;99960.21;1676256;85;21035;-87
2022/06/19 03:29:36;;;;;;;3.33;2.95;;;;;;;19.08;52.75;99965.34;1705360;84;21577;-84
2022/06/19 03:32:03;;;;;;;3.90;2.35;;;;;;;19.10;52.63;99960.38;1710901;83;21047;-83
2022/06/19 03:34:31;;;;;;;4.75;2.25;;;;;;;19.14;52.26;99958.67;1713602;82;21607;-82
2022/06/19 03:36:58;;;;;;;2.33;2.12;;;;;;;19.18;52.00;99965.14;1730322;83;21023;-82
2022/06/19 03:39:25;;;;;;;3.05;2.75;;;;;;;19.23;51.92;99966.19;1759090;81;21083;-83
2022/06/19 03:41:53;;;;;;;3.17;2.37;;;;;;;19.25;51.89;99962.03;1730471;81;21055;-81
2022/06/19 03:44:19;;;;;;;3.10;2.80;;;;;;;19.29;51.80;99964.96;1713071;82;21465;-84
2022/06/19 03:46:46;;;;;;;5.12;2.90;;;;;;;19.33;51.85;99963.28;1703081;84;21482;-84
2022/06/19 03:49:12;;;;;;;3.25;2.95;;;;;;;19.35;51.99;99961.85;1689074;84;21084;-81
2022/06/19 03:51:41;;;;;;;7.97;5.00;;;;;;;19.37;52.11;99965.66;1697950;84;21011;-94
2022/06/19 03:54:09;;;;;;;4.00;3.60;;;;;;;19.37;52.13;99967.02;1711378;83;22162;-86
2022/06/19 03:56:36;;;;;;;8.83;3.50;;;;;;;19.39;52.22;99961.50;1758737;81;21019;-81
2022/06/19 03:59:04;;;;;;;3.00;2.75;;;;;;;19.41;52.30;99957.93;1751338;82;21055;-85
2022/06/19 04:01:34;;;;;;;3.58;2.60;;;;;;;19.42;52.24;99957.38;1747396;81;21031;-90
2022/06/19 04:04:01;;;;;;;3.12;2.83;;;;;;;19.44;52.51;99956.53;1692919;84;21067;-87
2022/06/19 04:06:31;;;;;;;4.95;3.12;;;;;;;19.45;52.62;99952.70;1736354;82;21133;-87
2022/06/19 04:09:01;;;;;;;3.22;2.92;;;;;;;19.47;52.81;99957.31;1732507;82;21071;-89
2022/06/19 04:11:30;;;;;;;3.80;3.08;;;;;;;19.48;52.68;99952.08;1723928;83;20962;-87
2022/06/19 04:13:58;;;;;;;3.65;3.35;;;;;;;19.52;52.89;99957.19;1731234;83;21025;-88
2022/06/19 04:16:30;;;;;;;4.30;3.65;;;;;;;19.54;52.94;99956.34;1723968;83;21032;-87
2022/06/19 04:18:59;;;;;;;3.70;3.40;;;;;;;19.57;52.90;99966.64;1727883;82;21153;-76
2022/06/19 04:21:27;;;;;;;7.50;2.90;;;;;;;19.62;53.36;99962.45;1729081;83;20984;-79
2022/06/19 04:23:58;;;;;;;3.22;3.02;;;;;;;19.65;53.17;99964.59;1698056;84;20956;-79
2022/06/19 04:26:26;;;;;;;4.75;2.70;;;;;;;19.69;53.64;99967.52;1698482;84;21049;-84
2022/06/19 04:28:53;;;;;;;3.87;3.47;;;;;;;19.73;53.68;99973.42;1698412;84;21040;-85
2022/06/19 04:31:20;;;;;;;3.15;2.77;;;;;;;19.76;53.62;99970.08;1698426;82;21160;-82
2022/06/19 04:33:46;;;;;;;3.05;2.77;;;;;;;19.81;53.50;99968.62;1662179;85;21004;-85
2022/06/19 04:36:16;;;;;;;2.95;2.65;;;;;;;19.86;53.23;99971.80;1699735;84;20996;-87
2022/06/19 04:38:44;;;;;;;5.03;2.45;;;;;;;19.92;52.96;99965.94;1696337;83;21068;-85
2022/06/19 04:41:27;;;;;;;2.50;2.37;;;;;;;19.99;52.83;99964.98;1638758;86;21000;-78
2022/06/19 04:43:54;;;;;;;6.08;2.67;;;;;;;20.05;52.81;99967.61;1666073;86;21158;-77
2022/06/19 04:46:20;;;;;;;2.87;2.62;;;;;;;20.12;52.52;99972.90;1721682;82;20941;-79
2022/06/19 04:48:47;;;;;;;2.95;2.67;;;;;;;20.19;52.69;99969.77;1728826;83;21511;-80
2022/06/19 04:51:15;;;;;;;3.75;3.42;;;;;;;20.25;52.42;99963.05;1674168;83;21673;-85
2022/06/19 04:53:41;;;;;;;3.67;3.00;;;;;;;20.34;52.57;99963.97;1695815;82;21017;-89
2022/06/19 04:56:09;;;;;;;2.98;2.67;;;;;;;20.40;52.62;99963.55;1699800;82;21236;-89
2022/06/19 04:58:36;;;;;;;5.05;2.80;;;;;;;20.48;52.60;99960.63;1722679;82;20992;-84
2022/06/19 05:01:05;;;;;;;6.42;3.08;;;;;;;20.55;52.57;99961.03;1698779;83;21216;-81
2022/06/19 05:03:32;;;;;;;3.22;3.02;;;;;;;20.67;52.29;99951.70;1657721;84;21106;-80
2022/06/19 05:06:00;;;;;;;4.65;2.90;;;;;;;20.67;52.29;99951.70;1699281;83;21123;-79
2022/06/19 05:08:28;;;;;;;3.70;3.40;;;;;;;20.78;52.43;99955.01;1699903;84;21043;-78
2022/06/19 05:10:55;;;;;;;2.95;2.65;;;;;;;20.84;52.42;99961.97;1703566;84;20980;-80
2022/06/19 05:13:23;;;;;;;3.27;2.98;;;;;;;20.99;52.54;99967.07;1674911;84;21031;-81
2022/06/19 05:15:50;;;;;;;3.47;2.72;;;;;;;20.99;52.54;99967.07;1710631;82;21098;-84
2022/06/19 05:18:17;;;;;;;5.97;3.52;;;;;;;21.06;52.02;99966.61;1743078;81;21489;-86
2022/06/19 05:20:44;;;;;;;3.83;3.45;;;;;;;21.13;51.91;99968.36;1748534;81;21092;-80
2022/06/19 05:23:12;;;;;;;4.58;3.40;;;;;;;21.21;51.98;99972.53;1702604;84;21053;-80
2022/06/19 05:25:38;;;;;;;3.58;3.20;;;;;;;21.30;52.10;99978.05;1702839;84;21501;-78
2022/06/19 05:28:05;;;;;;;4.40;2.83;;;;;;;21.38;50.95;99973.77;1702973;84;21533;-77
2022/06/19 05:30:32;;;;;;;2.87;2.67;;;;;;;21.48;50.63;99977.59;1749390;81;21056;-77
2022/06/19 05:32:58;;;;;;;2.05;1.95;;;;;;;21.56;50.48;99969.98;1704096;82;21245;-80
2022/06/19 05:35:26;;;;;;;3.00;2.70;;;;;;;21.63;50.22;99966.23;1752237;81;21003;-78
2022/06/19 05:37:54;;;;;;;2.62;2.42;;;;;;;21.70;49.85;99972.86;1753452;81;20960;-80
2022/06/19 05:40:22;;;;;;;3.87;3.58;;;;;;;21.79;49.52;99974.25;1731066;81;21046;-80
2022/06/19 05:42:50;;;;;;;5.70;2.55;;;;;;;21.87;49.21;99978.16;1703063;84;21048;-80
2022/06/19 05:45:17;;;;;;;3.08;2.83;;;;;;;21.95;48.84;99976.03;1702652;84;22157;-78
2022/06/19 05:47:43;;;;;;;2.58;2.37;;;;;;;22.04;48.84;99974.11;1703142;84;21093;-78
2022/06/19 05:50:10;;;;;;;2.87;2.58;;;;;;;22.11;48.49;99970.33;1701216;82;21070;-79
2022/06/19 05:52:37;;;;;;;2.30;2.10;;;;;;;22.19;47.66;99975.03;1700958;84;21091;-81
2022/06/19 05:55:05;;;;;;;2.00;1.90;;;;;;;22.31;47.38;99979.88;1701629;84;21038;-81
2022/06/19 05:57:32;;;;;;;2.40;2.20;;;;;;;22.39;47.22;99979.09;1701061;84;21211;-81
2022/06/19 05:59:58;;;;;;;2.77;1.92;;;;;;;22.47;47.37;99984.58;1702086;82;21052;-80
2022/06/19 06:02:26;;;;;;;2.55;2.35;;;;;;;22.55;47.03;99990.62;1703171;84;20997;-82
2022/06/19 06:04:53;;;;;;;2.30;2.10;;;;;;;22.65;46.55;99988.69;1728220;82;21004;-79
2022/06/19 06:07:22;;;;;;;4.42;2.15;;;;;;;22.73;45.92;99988.74;1733847;82;21016;-79
2022/06/19 06:09:50;;;;;;;1.92;1.82;;;;;;;22.80;45.88;99975.33;1708338;82;21809;-80
2022/06/19 06:12:18;;;;;;;2.40;2.10;;;;;;;22.87;45.76;99977.59;1688618;85;20948;-78
2022/06/19 06:14:46;;;;;;;3.62;1.95;;;;;;;22.92;45.25;99987.03;1695756;83;20997;-79
2022/06/19 06:17:13;;;;;;;2.20;2.02;;;;;;;22.95;45.40;99994.04;1719555;83;21056;-77
2022/06/19 06:19:39;;;;;;;1.85;1.72;;;;;;;22.99;45.53;99986.77;1700469;83;21501;-78
2022/06/19 06:22:06;;;;;;;2.35;2.15;;;;;;;23.02;45.18;99992.97;1695521;84;21211;-81
2022/06/19 06:24:33;;;;;;;3.60;1.90;;;;;;;23.07;45.07;99987.88;1703714;83;21048;-77
2022/06/19 06:27:05;;;;;;;2.22;2.02;;;;;;;23.12;44.78;99986.92;1688690;84;20985;-83
2022/06/19 06:29:31;;;;;;;2.42;2.17;;;;;;;23.15;44.15;99987.08;1698332;83;21012;-83
2022/06/19 06:31:58;;;;;;;2.95;2.00;;;;;;;23.21;44.35;99989.89;1703374;83;21068;-82
2022/06/19 06:34:24;;;;;;;3.35;2.47;;;;;;;23.24;44.44;99987.05;1696949;84;21008;-85
2022/06/19 06:36:51;;;;;;;2.85;2.20;;;;;;;23.28;44.48;99984.69;1696868;84;21064;-83
2022/06/19 06:39:17;;;;;;;2.20;2.00;;;;;;;23.33;44.49;99974.91;1697143;83;21079;-77
2022/06/19 06:41:45;;;;;;;2.87;2.10;;;;;;;23.39;44.63;99981.03;1692236;83;21053;-79
2022/06/19 06:44:13;;;;;;;2.47;2.27;;;;;;;23.44;44.66;99979.48;1688703;85;21092;-80
2022/06/19 06:46:40;;;;;;;2.45;1.98;;;;;;;23.51;44.75;99988.60;1690875;83;22180;-77
2022/06/19 06:49:07;;;;;;;2.30;2.10;;;;;;;23.56;44.45;99981.56;1706968;83;21756;-81
2022/06/19 06:51:34;;;;;;;4.28;2.20;;;;;;;23.59;44.53;99983.10;1688795;85;21551;-81
2022/06/19 06:54:01;;;;;;;2.22;2.02;;;;;;;23.61;44.51;99976.70;1694444;83;21126;-81
2022/06/19 06:56:33;;;;;;;2.37;2.17;;;;;;;23.65;44.65;99991.38;1693863;84;20996;-82
2022/06/19 06:59:00;;;;;;;3.02;2.35;;;;;;;23.71;44.06;99985.14;1704871;83;21090;-82
2022/06/19 07:01:26;;;;;;;2.85;2.20;;;;;;;23.76;44.01;99976.15;1719545;83;21032;-81
2022/06/19 07:03:56;;;;;;;1.82;1.72;;;;;;;23.83;43.86;99970.95;1719259;83;21025;-82
2022/06/19 07:06:29;;;;;;;2.10;1.75;;;;;;;23.87;43.76;99965.03;1719278;83;21055;-84
2022/06/19 07:08:53;;;;;;;1.90;1.80;;;;;;;23.94;43.74;99966.43;1712959;83;21056;-80
2022/06/19 07:11:24;;;;;;;2.08;1.90;;;;;;;23.99;43.68;99971.73;1689297;84;21025;-80
2022/06/19 07:13:53;;;;;;;3.03;1.50;;;;;;;24.05;43.75;99970.42;1694780;83;20989;-77
2022/06/19 07:16:20;;;;;;;3.65;2.25;;;;;;;24.10;43.42;99971.60;1727504;82;21321;-78
2022/06/19 07:18:46;;;;;;;2.35;1.95;;;;;;;24.14;43.02;99965.11;1728349;83;21059;-78
2022/06/19 07:21:13;;;;;;;2.33;2.17;;;;;;;24.21;42.65;99957.18;1697460;83;21000;-78
2022/06/19 07:23:40;;;;;;;2.20;1.90;;;;;;;24.23;42.73;99949.39;1719532;83;21161;-80
2022/06/19 07:26:12;;;;;;;1.85;1.75;;;;;;;24.28;42.82;99949.76;1696485;84;21073;-79
2022/06/19 07:28:40;;;;;;;3.77;1.80;;;;;;;24.33;42.56;99954.49;1696592;84;21024;-80
2022/06/19 07:31:07;;;;;;;2.02;1.75;;;;;;;24.38;41.84;99948.55;1714744;83;21013;-79
2022/06/19 07:33:35;;;;;;;2.90;2.40;;;;;;;24.40;41.54;99942.97;1738545;82;21009;-80
2022/06/19 07:36:05;;;;;;;2.65;2.05;;;;;;;24.43;41.63;99937.35;1750549;80;21078;-76
2022/06/19 07:38:32;;;;;;;1.70;1.60;;;;;;;24.44;41.44;99937.59;1719804;82;21065;-78
2022/06/19 07:41:00;;;;;;;1.50;1.40;;;;;;;24.47;41.46;99941.84;1678764;84;21001;-78
2022/06/19 07:43:28;;;;;;;1.62;1.52;;;;;;;24.53;41.44;99936.95;1719137;83;21047;-77
2022/06/19 07:45:55;;;;;;;2.87;2.25;;;;;;;24.60;41.15;99931.73;1696426;83;21502;-78
2022/06/19 07:51:10;;;;;;;6.33;2.05;;;;;;;24.65;40.48;99931.52;1717422;82;21497;-85
2022/06/19 07:53:36;;;;;;;4.62;1.40;;;;;;;24.71;40.25;99925.45;1719926;82;21051;-82
2022/06/19 07:56:03;;;;;;;2.55;1.35;;;;;;;24.74;39.90;99916.55;1720373;82;21035;-81
2022/06/19 07:58:34;;;;;;;1.77;1.67;;;;;;;24.78;39.61;99919.98;1696958;84;22049;-82
2022/06/19 08:01:01;;;;;;;1.57;1.30;;;;;;;24.82;39.65;99918.16;1719515;83;21141;-81
2022/06/19 08:03:28;;;;;;;12.33;2.20;;;;;;;24.88;39.59;99918.22;1696684;84;21044;-79
2022/06/19 08:05:55;;;;;;;1.80;1.70;;;;;;;24.94;39.25;99922.37;1719396;82;21009;-80
2022/06/19 08:08:26;;;;;;;1.40;1.30;;;;;;;24.97;39.11;99914.80;1719186;83;21067;-79
2022/06/19 08:10:54;;;;;;;1.32;1.20;;;;;;;24.99;39.24;99920.18;1715345;82;21059;-78
2022/06/19 08:13:26;;;;;;;2.20;1.60;;;;;;;25.05;39.21;99915.27;1698949;84;20952;-80
2022/06/19 08:16:02;;;;;;;1.60;1.40;;;;;;;25.08;39.41;99911.85;1733884;82;21035;-84
2022/06/19 08:18:29;;;;;;;1.70;1.60;;;;;;;25.13;38.39;99913.78;1697658;84;21014;-79
2022/06/19 08:20:56;;;;;;;1.60;1.50;;;;;;;25.16;38.46;99917.25;1702058;83;21018;-81
2022/06/19 08:23:22;;;;;;;1.87;1.75;;;;;;;25.22;38.36;99916.47;1682211;85;21580;-87
2022/06/19 08:25:50;;;;;;;3.62;1.70;;;;;;;25.30;37.82;99910.61;1705365;82;21493;-84
2022/06/19 08:28:27;;;;;;;1.30;1.20;;;;;;;25.36;37.30;99920.27;1698588;83;20976;-85
2022/06/19 08:30:49;;;;;;;;;;;;;;;25.40;36.58;99915.10;1724228;81;21568;-87
2022/06/19 08:33:16;;;;;;;1.55;1.45;;;;;;;25.45;36.56;99910.75;1718534;82;20101;-80
2022/06/19 08:35:50;;;;;;;1.92;1.25;;;;;;;25.48;34.23;99912.80;1700744;83;21522;-81
2022/06/19 08:38:21;;;;;;;1.82;1.72;;;;;;;25.52;35.60;99911.53;1670611;83;22309;-77
2022/06/19 08:41:00;;;;;;;1.67;1.57;;;;;;;25.56;36.65;99912.52;1676696;84;21517;-83
2022/06/19 08:43:41;;;;;;;2.80;1.80;;;;;;;25.62;37.05;99894.58;1698154;83;20965;-77
2022/06/19 08:46:41;;;;;;;2.40;1.70;;;;;;;25.69;37.27;99898.16;1693423;83;21069;-77
2022/06/19 08:49:35;;;;;;;5.45;2.08;;;;;;;25.73;36.96;99899.06;1657705;86;21582;-84
2022/06/19 08:52:27;;;;;;;2.00;1.60;;;;;;;25.75;37.08;99900.91;1657464;86;22200;-78
2022/06/19 08:55:08;;;;;;;3.45;1.62;;;;;;;25.78;37.13;99895.50;1726857;82;21012;-75
2022/06/19 08:58:01;;;;;;;2.20;2.02;;;;;;;25.84;37.12;99898.83;1688422;83;20977;-77
2022/06/19 09:00:54;;;;;;;1.90;1.52;;;;;;;25.89;37.03;99899.97;1709875;83;21021;-77
2022/06/19 09:06:36;;;;;;;1.55;1.37;;;;;;;26.02;37.35;99903.73;1660300;85;21169;-78
2022/06/19 09:09:20;;;;;;;1.67;1.57;;;;;;;26.03;37.23;99897.66;1713894;83;20949;-77
2022/06/19 09:12:12;;;;;;;2.72;2.02;;;;;;;26.03;37.44;99888.81;1736324;81;21038;-79
2022/06/19 09:15:05;;;;;;;1.40;1.30;;;;;;;26.08;37.46;99883.62;1693211;82;21051;-80
2022/06/19 09:17:39;;;;;;;;;;;;;;;26.18;36.94;99884.52;1707120;83;21087;-80
2022/06/19 09:20:21;;;;;;;1.50;1.40;;;;;;;26.28;36.67;99877.74;1665314;84;21173;-81
2022/06/19 09:23:23;;;;;;;1.85;1.55;;;;;;;26.30;36.76;99902.43;1757106;81;21030;-79
2022/06/19 09:25:57;;;;;;;7.22;1.80;;;;;;;26.34;36.54;99869.42;1676589;84;21070;-77
2022/06/19 09:28:49;;;;;;;1.52;1.32;;;;;;;26.32;36.41;99867.04;1669366;86;21172;-79
2022/06/19 09:31:20;;;;;;;1.95;1.85;;;;;;;26.32;36.49;99880.02;1702140;83;21012;-86
2022/06/19 09:34:13;;;;;;;2.33;1.77;;;;;;;26.33;36.55;99865.09;1736186;81;21545;-82
2022/06/19 09:37:13;;;;;;;1.57;1.30;;;;;;;26.38;36.57;99873.89;1728442;82;20919;-82
2022/06/19 09:39:52;;;;;;;1.87;1.45;;;;;;;26.46;36.30;99868.82;1724629;82;21460;-78
2022/06/19 09:42:33;;;;;;;2.27;1.10;;;;;;;26.54;35.87;99868.43;1733260;82;21484;-79
2022/06/19 09:45:27;;;;;;;1.65;1.45;;;;;;;26.60;35.84;99860.70;1734778;81;21533;-78
2022/06/19 09:48:12;;;;;;;1.32;1.22;;;;;;;26.68;35.81;99861.92;1697376;84;21150;-83
2022/06/19 09:51:01;;;;;;;1.45;1.35;;;;;;;26.78;36.10;99878.55;1718483;81;21643;-76
2022/06/19 09:54:06;;;;;;;4.42;1.30;;;;;;;26.87;35.69;99868.17;1730613;81;21580;-78
2022/06/19 09:56:42;;;;;;;2.27;1.57;;;;;;;26.93;35.77;99861.23;1725690;82;21027;-76
2022/06/19 09:59:17;;;;;;;1.75;1.40;;;;;;;26.95;35.55;99863.08;1695259;84;21122;-73
2022/06/19 10:01:45;;;;;;;1.60;1.50;;;;;;;26.98;35.47;99860.17;1728156;81;21246;-73
2022/06/19 10:04:21;;;;;;;3.27;1.20;;;;;;;27.03;35.43;99859.33;1707723;82;21027;-81
2022/06/19 10:06:54;;;;;;;5.67;1.47;;;;;;;27.08;35.47;99866.55;1742363;81;21035;-76
2022/06/19 10:09:47;;;;;;;1.45;1.10;;;;;;;27.11;35.30;99864.45;1700357;82;21075;-75
2022/06/19 10:12:20;;;;;;;4.95;1.37;;;;;;;27.17;35.12;99876.27;1729895;81;21551;-79
2022/06/19 10:14:48;;;;;;;1.70;0.98;;;;;;;27.22;34.86;99876.00;1732919;81;21291;-74
2022/06/19 10:17:23;;;;;;;4.40;1.35;;;;;;;27.28;34.76;99870.44;1690355;82;21008;-74
2022/06/19 10:20:15;;;;;;;3.77;1.42;;;;;;;27.35;34.72;99864.27;1703603;84;21072;-74
2022/06/19 10:22:56;;;;;;;4.75;1.57;;;;;;;27.42;34.35;99876.88;1689058;82;21071;-73
2022/06/19 10:25:43;;;;;;;2.33;1.27;;;;;;;27.41;33.98;99869.75;1691156;84;21040;-87
2022/06/19 10:28:45;;;;;;;2.25;1.70;;;;;;;27.41;33.97;99879.42;1722540;82;21271;-88
2022/06/19 10:31:30;;;;;;;3.35;1.40;;;;;;;27.40;34.11;99867.34;1722305;81;20963;-87
2022/06/19 10:34:28;;;;;;;2.72;1.30;;;;;;;27.46;34.58;99879.73;1731997;82;21615;-84
2022/06/19 10:37:10;;;;;;;3.92;1.30;;;;;;;27.54;34.25;99873.23;1733394;82;21008;-89
2022/06/19 10:40:19;;;;;;;2.17;1.65;;;;;;;27.64;34.03;99858.86;1734327;82;21072;-85
2022/06/19 10:43:21;;;;;;;2.33;1.65;;;;;;;27.74;33.71;99859.70;1730152;82;21164;-77
2022/06/19 10:45:52;;;;;;;4.17;2.12;;;;;;;27.84;33.61;99864.66;1656665;84;21591;-82
2022/06/19 10:48:59;;;;;;;2.30;1.10;;;;;;;27.95;33.25;99867.67;1699636;82;21054;-76
2022/06/19 10:51:58;;;;;;;3.37;1.72;;;;;;;28.02;33.20;99876.11;1764318;81;20920;-73
2022/06/19 10:54:39;;;;;;;2.08;1.42;;;;;;;28.09;33.10;99871.55;1721249;82;21623;-74
2022/06/19 10:57:20;;;;;;;2.52;1.40;;;;;;;28.11;32.57;99865.09;1738120;82;21234;-77
2022/06/19 10:59:47;;;;;;;1.52;1.17;;;;;;;28.12;33.07;99848.72;1704800;84;21086;-82
2022/06/19 11:05:40;;;;;;;1.55;1.30;;;;;;;28.28;32.86;99853.39;1730260;82;21064;-81
2022/06/19 11:08:06;;;;;;;3.67;1.50;;;;;;;28.34;32.34;99838.91;1674242;84;21524;-76
2022/06/19 11:10:43;;;;;;;6.15;1.82;;;;;;;28.38;32.55;99842.54;1648532;85;21129;-79
2022/06/19 11:13:10;;;;;;;1.80;1.20;;;;;;;28.44;32.65;99839.67;1706213;82;21069;-76
2022/06/19 11:15:44;;;;;;;1.72;1.02;;;;;;;28.53;32.27;99838.89;1706866;83;21000;-76
2022/06/19 11:18:22;;;;;;;2.10;1.47;;;;;;;28.59;32.35;99839.36;1688736;83;21028;-75
2022/06/19 11:21:02;;;;;;;4.37;1.80;;;;;;;28.63;32.30;99842.41;1660426;86;21596;-77
2022/06/19 11:23:43;;;;;;;2.25;1.20;;;;;;;28.65;32.07;99832.38;1658922;86;21177;-76
2022/06/19 11:26:16;;;;;;;3.65;1.70;;;;;;;28.61;32.25;99821.23;1686498;83;21051;-71
2022/06/19 11:29:17;;;;;;;7.30;1.27;;;;;;;28.65;32.10;99828.22;1664406;86;21097;-72
2022/06/19 11:32:12;;;;;;;2.45;1.55;;;;;;;28.66;32.08;99829.82;1663223;85;21003;-75
2022/06/19 11:34:59;;;;;;;1.87;1.30;;;;;;;28.79;32.11;99834.63;1670271;85;20997;-73
2022/06/19 11:37:39;;;;;;;3.15;1.27;;;;;;;28.91;32.10;99825.58;1645365;86;21152;-75
2022/06/19 11:40:18;;;;;;;3.30;1.50;;;;;;;28.94;32.28;99831.75;1681492;84;21052;-75
2022/06/19 11:42:59;;;;;;;4.10;1.07;;;;;;;29.01;32.04;99821.38;1640234;86;21004;-76
2022/06/19 11:45:30;;;;;;;4.70;1.52;;;;;;;29.08;31.91;99821.48;1704456;83;21068;-77
2022/06/19 11:48:01;;;;;;;2.83;1.22;;;;;;;29.15;31.91;99826.36;1688818;85;21514;-76
2022/06/19 11:50:52;;;;;;;1.45;1.17;;;;;;;29.19;32.16;99819.70;1659280;86;21212;-74
2022/06/19 11:53:29;;;;;;;1.72;1.50;;;;;;;29.23;32.10;99815.59;1660438;86;21006;-76
2022/06/19 11:56:30;;;;;;;3.33;1.35;;;;;;;29.31;31.75;99811.78;1699794;83;21031;-74
2022/06/19 11:59:00;;;;;;;3.12;2.00;;;;;;;29.40;31.50;99815.12;1688177;84;21087;-73
2022/06/19 12:01:44;;;;;;;2.60;1.52;;;;;;;29.50;31.18;99822.77;1649278;86;21044;-74
2022/06/19 12:04:38;;;;;;;7.03;1.75;;;;;;;29.56;31.06;99824.64;1709927;83;21143;-74
2022/06/19 12:07:14;;;;;;;3.27;2.22;;;;;;;29.64;31.06;99806.34;1688065;85;21055;-72
2022/06/19 12:09:46;;;;;;;5.50;1.95;;;;;;;29.77;31.03;99811.09;1658196;85;20981;-72
2022/06/19 12:12:18;;;;;;;2.65;1.45;;;;;;;29.87;30.76;99793.80;1654560;84;21036;-77
2022/06/19 12:14:56;;;;;;;2.65;1.32;;;;;;;29.97;30.62;99785.43;1696196;84;21104;-76
2022/06/19 12:17:38;;;;;;;2.65;1.90;;;;;;;29.96;30.81;99779.08;1696682;84;21038;-77